HBSGP LFSB-LSGS
Flight info
| Callsign | HBSGP |
|---|---|
| Flight time | 1h 8m |
| Altitude | 6500 |
| Route | VFR |
| Aircraft | DA40/L-SFG/C |
Departure
| Time | 2026-05-05 19:09 |
|---|---|
| Airport | EuroAirport Basel–Mulhouse–Freiburg (LFSB) |
Arrival
| Time | 2026-05-05 20:17 |
|---|---|
| Airport | Sion Airport (LSGS) |
| Time | Latitude | Longitude | Altitude | Speed | Heading |
|---|---|---|---|---|---|
| 2026-05-05 18:54 | 47.60327 | 7.52512 | 854 ft | 0 kts | 321° |
| 2026-05-05 19:00 | 47.60336 | 7.52496 | 850 ft | 5 kts | 289° |
| 2026-05-05 19:00 | 47.60319 | 7.52451 | 850 ft | 4 kts | 230° |
| 2026-05-05 19:00 | 47.60294 | 7.52439 | 850 ft | 5 kts | 136° |
| 2026-05-05 19:00 | 47.60285 | 7.52493 | 850 ft | 5 kts | 136° |
| 2026-05-05 19:01 | 47.60237 | 7.52491 | 851 ft | 10 kts | 176° |
| 2026-05-05 19:01 | 47.60186 | 7.52479 | 852 ft | 6 kts | 159° |
| 2026-05-05 19:01 | 47.60131 | 7.52519 | 852 ft | 12 kts | 154° |
| 2026-05-05 19:01 | 47.60061 | 7.52567 | 852 ft | 9 kts | 155° |
| 2026-05-05 19:02 | 47.59982 | 7.52622 | 852 ft | 15 kts | 154° |
| 2026-05-05 19:02 | 47.59885 | 7.52689 | 852 ft | 16 kts | 155° |
| 2026-05-05 19:02 | 47.59794 | 7.52753 | 852 ft | 13 kts | 156° |
| 2026-05-05 19:02 | 47.59723 | 7.52803 | 852 ft | 10 kts | 150° |
| 2026-05-05 19:03 | 47.59656 | 7.52850 | 852 ft | 14 kts | 159° |
| 2026-05-05 19:03 | 47.59568 | 7.52911 | 853 ft | 14 kts | 154° |
| 2026-05-05 19:03 | 47.59490 | 7.52964 | 853 ft | 10 kts | 154° |
| 2026-05-05 19:03 | 47.59431 | 7.53007 | 853 ft | 8 kts | 145° |
| 2026-05-05 19:04 | 47.59391 | 7.53056 | 853 ft | 7 kts | 139° |
| 2026-05-05 19:04 | 47.59338 | 7.53088 | 853 ft | 11 kts | 171° |
| 2026-05-05 19:04 | 47.59262 | 7.53120 | 853 ft | 10 kts | 153° |
| 2026-05-05 19:04 | 47.59204 | 7.53164 | 853 ft | 8 kts | 148° |
| 2026-05-05 19:05 | 47.59178 | 7.53209 | 854 ft | 8 kts | 118° |
| 2026-05-05 19:05 | 47.59147 | 7.53260 | 855 ft | 7 kts | 119° |
| 2026-05-05 19:05 | 47.59152 | 7.53334 | 855 ft | 7 kts | 78° |
| 2026-05-05 19:05 | 47.59163 | 7.53402 | 855 ft | 7 kts | 77° |
| 2026-05-05 19:06 | 47.59171 | 7.53458 | 855 ft | 6 kts | 73° |
| 2026-05-05 19:06 | 47.59186 | 7.53545 | 854 ft | 12 kts | 77° |
| 2026-05-05 19:06 | 47.59201 | 7.53642 | 854 ft | 7 kts | 76° |
| 2026-05-05 19:06 | 47.59206 | 7.53684 | 854 ft | 2 kts | 71° |
| 2026-05-05 19:07 | 47.59207 | 7.53705 | 879 ft | 6 kts | 114° |
| 2026-05-05 19:07 | 47.59159 | 7.53736 | 875 ft | 9 kts | 163° |
| 2026-05-05 19:07 | 47.59120 | 7.53730 | 876 ft | 5 kts | 212° |
| 2026-05-05 19:07 | 47.59106 | 7.53692 | 876 ft | 15 kts | 256° |
| 2026-05-05 19:08 | 47.59046 | 7.53305 | 879 ft | 60 kts | 256° |
| 2026-05-05 19:08 | 47.58917 | 7.52612 | 1008 ft | 74 kts | 252° |
| 2026-05-05 19:08 | 47.58822 | 7.51850 | 1191 ft | 76 kts | 272° |
| 2026-05-05 19:08 | 47.58907 | 7.51062 | 1407 ft | 73 kts | 278° |
| 2026-05-05 19:09 | 47.58995 | 7.50359 | 1526 ft | 70 kts | 279° |
| 2026-05-05 19:09 | 47.59114 | 7.49607 | 1651 ft | 77 kts | 279° |
| 2026-05-05 19:09 | 47.59275 | 7.48836 | 1885 ft | 78 kts | 280° |
| 2026-05-05 19:09 | 47.59421 | 7.48013 | 2056 ft | 83 kts | 275° |
| 2026-05-05 19:10 | 47.59546 | 7.47093 | 2090 ft | 98 kts | 275° |
| 2026-05-05 19:10 | 47.59656 | 7.46074 | 2187 ft | 103 kts | 274° |
| 2026-05-05 19:10 | 47.59788 | 7.44988 | 2189 ft | 106 kts | 277° |
| 2026-05-05 19:10 | 47.59950 | 7.43956 | 2183 ft | 100 kts | 278° |
| 2026-05-05 19:11 | 47.60109 | 7.43003 | 2182 ft | 94 kts | 278° |
| 2026-05-05 19:11 | 47.60263 | 7.42083 | 2183 ft | 91 kts | 278° |
| 2026-05-05 19:11 | 47.60417 | 7.41178 | 2178 ft | 89 kts | 278° |
| 2026-05-05 19:11 | 47.60566 | 7.40301 | 2176 ft | 87 kts | 277° |
| 2026-05-05 19:12 | 47.60561 | 7.39431 | 2174 ft | 86 kts | 248° |
| 2026-05-05 19:12 | 47.60309 | 7.38626 | 2171 ft | 85 kts | 243° |
| 2026-05-05 19:12 | 47.60057 | 7.37831 | 2178 ft | 87 kts | 243° |
| 2026-05-05 19:12 | 47.59789 | 7.37006 | 2182 ft | 91 kts | 244° |
| 2026-05-05 19:13 | 47.59516 | 7.36161 | 2173 ft | 89 kts | 244° |
| 2026-05-05 19:13 | 47.59248 | 7.35353 | 2175 ft | 87 kts | 244° |
| 2026-05-05 19:13 | 47.58982 | 7.34545 | 2177 ft | 88 kts | 243° |
| 2026-05-05 19:13 | 47.58725 | 7.33727 | 2174 ft | 87 kts | 244° |
| 2026-05-05 19:14 | 47.58465 | 7.32918 | 2170 ft | 86 kts | 244° |
| 2026-05-05 19:14 | 47.58204 | 7.32116 | 2170 ft | 86 kts | 244° |
| 2026-05-05 19:14 | 47.57944 | 7.31318 | 2166 ft | 86 kts | 244° |
| 2026-05-05 19:14 | 47.57685 | 7.30522 | 2176 ft | 86 kts | 243° |
| 2026-05-05 19:15 | 47.57290 | 7.29890 | 2179 ft | 99 kts | 207° |
| 2026-05-05 19:15 | 47.56572 | 7.29620 | 2148 ft | 115 kts | 196° |
| 2026-05-05 19:15 | 47.55767 | 7.29344 | 2142 ft | 121 kts | 196° |
| 2026-05-05 19:15 | 47.54940 | 7.29054 | 2139 ft | 121 kts | 196° |
| 2026-05-05 19:16 | 47.54110 | 7.28765 | 2142 ft | 125 kts | 195° |
| 2026-05-05 19:16 | 47.53252 | 7.28458 | 2135 ft | 129 kts | 196° |
| 2026-05-05 19:16 | 47.52387 | 7.28153 | 2143 ft | 128 kts | 197° |
| 2026-05-05 19:16 | 47.51515 | 7.27848 | 2138 ft | 129 kts | 196° |
| 2026-05-05 19:17 | 47.50638 | 7.27545 | 2136 ft | 130 kts | 195° |
| 2026-05-05 19:17 | 47.49785 | 7.27234 | 2286 ft | 119 kts | 195° |
| 2026-05-05 19:17 | 47.48990 | 7.26952 | 2422 ft | 112 kts | 196° |
| 2026-05-05 19:17 | 47.48225 | 7.26688 | 2544 ft | 112 kts | 196° |
| 2026-05-05 19:18 | 47.47478 | 7.26448 | 2689 ft | 110 kts | 195° |
| 2026-05-05 19:18 | 47.46739 | 7.26213 | 2794 ft | 104 kts | 194° |
| 2026-05-05 19:18 | 47.46032 | 7.26003 | 2930 ft | 105 kts | 195° |
| 2026-05-05 19:18 | 47.45318 | 7.25807 | 3057 ft | 104 kts | 195° |
| 2026-05-05 19:19 | 47.44601 | 7.25623 | 3181 ft | 106 kts | 195° |
| 2026-05-05 19:19 | 47.43869 | 7.25432 | 3308 ft | 107 kts | 195° |
| 2026-05-05 19:19 | 47.43143 | 7.25242 | 3433 ft | 106 kts | 195° |
| 2026-05-05 19:19 | 47.42415 | 7.25052 | 3562 ft | 107 kts | 195° |
| 2026-05-05 19:20 | 47.41674 | 7.24858 | 3692 ft | 109 kts | 195° |
| 2026-05-05 19:20 | 47.40918 | 7.24663 | 3818 ft | 111 kts | 195° |
| 2026-05-05 19:20 | 47.40152 | 7.24467 | 3932 ft | 110 kts | 195° |
| 2026-05-05 19:20 | 47.39407 | 7.24290 | 4064 ft | 108 kts | 195° |
| 2026-05-05 19:21 | 47.38691 | 7.24135 | 4170 ft | 101 kts | 195° |
| 2026-05-05 19:21 | 47.37999 | 7.24013 | 4322 ft | 103 kts | 194° |
| 2026-05-05 19:21 | 47.37288 | 7.23863 | 4447 ft | 104 kts | 195° |
| 2026-05-05 19:21 | 47.36589 | 7.23716 | 4576 ft | 106 kts | 195° |
| 2026-05-05 19:22 | 47.35875 | 7.23566 | 4687 ft | 102 kts | 195° |
| 2026-05-05 19:22 | 47.35186 | 7.23430 | 4811 ft | 99 kts | 195° |
| 2026-05-05 19:22 | 47.34520 | 7.23293 | 4871 ft | 102 kts | 192° |
| 2026-05-05 19:22 | 47.33812 | 7.23087 | 5060 ft | 104 kts | 196° |
| 2026-05-05 19:23 | 47.33104 | 7.22919 | 5183 ft | 103 kts | 195° |
| 2026-05-05 19:23 | 47.32396 | 7.22763 | 5311 ft | 103 kts | 193° |
| 2026-05-05 19:23 | 47.31696 | 7.22577 | 5447 ft | 103 kts | 195° |
| 2026-05-05 19:23 | 47.30976 | 7.22388 | 5574 ft | 107 kts | 195° |
| 2026-05-05 19:24 | 47.30234 | 7.22197 | 5695 ft | 109 kts | 196° |
| 2026-05-05 19:24 | 47.29509 | 7.22033 | 5819 ft | 103 kts | 195° |
| 2026-05-05 19:24 | 47.28820 | 7.21899 | 5917 ft | 95 kts | 194° |
| 2026-05-05 19:24 | 47.28189 | 7.21792 | 6076 ft | 92 kts | 194° |
| 2026-05-05 19:25 | 47.27523 | 7.21656 | 6140 ft | 101 kts | 195° |
| 2026-05-05 19:25 | 47.26823 | 7.21489 | 6213 ft | 102 kts | 194° |
| 2026-05-05 19:25 | 47.26126 | 7.21296 | 6296 ft | 102 kts | 195° |
| 2026-05-05 19:25 | 47.25413 | 7.21107 | 6379 ft | 106 kts | 195° |
| 2026-05-05 19:26 | 47.24673 | 7.20913 | 6447 ft | 108 kts | 195° |
| 2026-05-05 19:26 | 47.23931 | 7.20723 | 6492 ft | 109 kts | 196° |
| 2026-05-05 19:26 | 47.23172 | 7.20536 | 6490 ft | 111 kts | 195° |
| 2026-05-05 19:26 | 47.22400 | 7.20346 | 6491 ft | 114 kts | 195° |
| 2026-05-05 19:27 | 47.21592 | 7.20137 | 6392 ft | 121 kts | 195° |
| 2026-05-05 19:27 | 47.20776 | 7.19914 | 6392 ft | 118 kts | 196° |
| 2026-05-05 19:27 | 47.19960 | 7.19690 | 6411 ft | 120 kts | 195° |
| 2026-05-05 19:27 | 47.19130 | 7.19461 | 6408 ft | 122 kts | 196° |
| 2026-05-05 19:28 | 47.18321 | 7.19249 | 6384 ft | 106 kts | 195° |
| 2026-05-05 19:28 | 47.17659 | 7.19098 | 6433 ft | 94 kts | 195° |
| 2026-05-05 19:28 | 47.16995 | 7.18963 | 6387 ft | 88 kts | 194° |
| 2026-05-05 19:28 | 47.16387 | 7.18851 | 6435 ft | 93 kts | 198° |
| 2026-05-05 19:29 | 47.15762 | 7.18433 | 6408 ft | 104 kts | 212° |
| 2026-05-05 19:29 | 47.15114 | 7.17893 | 6405 ft | 109 kts | 213° |
| 2026-05-05 19:29 | 47.14446 | 7.17350 | 6389 ft | 107 kts | 213° |
| 2026-05-05 19:29 | 47.13822 | 7.16852 | 6415 ft | 104 kts | 212° |
| 2026-05-05 19:30 | 47.13174 | 7.16315 | 6414 ft | 110 kts | 213° |
| 2026-05-05 19:30 | 47.12499 | 7.15751 | 6408 ft | 112 kts | 213° |
| 2026-05-05 19:30 | 47.11816 | 7.15172 | 6408 ft | 114 kts | 213° |
| 2026-05-05 19:30 | 47.11087 | 7.14686 | 6401 ft | 118 kts | 197° |
| 2026-05-05 19:31 | 47.10262 | 7.14537 | 6403 ft | 120 kts | 192° |
| 2026-05-05 19:31 | 47.09431 | 7.14416 | 6398 ft | 119 kts | 192° |
| 2026-05-05 19:31 | 47.08606 | 7.14297 | 6401 ft | 120 kts | 192° |
| 2026-05-05 19:31 | 47.07779 | 7.14177 | 6400 ft | 119 kts | 192° |
| 2026-05-05 19:32 | 47.06957 | 7.14062 | 6399 ft | 119 kts | 192° |
| 2026-05-05 19:32 | 47.06137 | 7.13948 | 6397 ft | 118 kts | 192° |
| 2026-05-05 19:32 | 47.05318 | 7.13835 | 6398 ft | 118 kts | 192° |
| 2026-05-05 19:32 | 47.04502 | 7.13722 | 6397 ft | 118 kts | 192° |
| 2026-05-05 19:33 | 47.03689 | 7.13611 | 6399 ft | 117 kts | 192° |
| 2026-05-05 19:33 | 47.02876 | 7.13498 | 6398 ft | 118 kts | 192° |
| 2026-05-05 19:33 | 47.02108 | 7.13392 | 6388 ft | 118 kts | 192° |
| 2026-05-05 19:33 | 47.01309 | 7.13281 | 6388 ft | 118 kts | 192° |
| 2026-05-05 19:34 | 47.00480 | 7.13164 | 6384 ft | 118 kts | 192° |
| 2026-05-05 19:34 | 46.99662 | 7.13052 | 6389 ft | 118 kts | 192° |
| 2026-05-05 19:34 | 46.98886 | 7.12951 | 6387 ft | 118 kts | 192° |
| 2026-05-05 19:35 | 46.97257 | 7.12729 | 6389 ft | 117 kts | 192° |
| 2026-05-05 19:35 | 46.96455 | 7.12617 | 6389 ft | 117 kts | 192° |
| 2026-05-05 19:35 | 46.95645 | 7.12503 | 6379 ft | 117 kts | 191° |
| 2026-05-05 19:35 | 46.94830 | 7.12351 | 6379 ft | 119 kts | 192° |
| 2026-05-05 19:36 | 46.94008 | 7.12189 | 6379 ft | 119 kts | 192° |
| 2026-05-05 19:36 | 46.93182 | 7.12027 | 6379 ft | 120 kts | 192° |
| 2026-05-05 19:36 | 46.92355 | 7.11860 | 6377 ft | 120 kts | 192° |
| 2026-05-05 19:36 | 46.91550 | 7.11696 | 6381 ft | 120 kts | 192° |
| 2026-05-05 19:37 | 46.90718 | 7.11527 | 6383 ft | 121 kts | 192° |
| 2026-05-05 19:37 | 46.89909 | 7.11250 | 6382 ft | 119 kts | 206° |
| 2026-05-05 19:37 | 46.89171 | 7.10741 | 6377 ft | 116 kts | 208° |
| 2026-05-05 19:37 | 46.88454 | 7.10220 | 6380 ft | 115 kts | 209° |
| 2026-05-05 19:38 | 46.87732 | 7.09696 | 6379 ft | 116 kts | 208° |
| 2026-05-05 19:38 | 46.87007 | 7.09169 | 6381 ft | 117 kts | 209° |
| 2026-05-05 19:38 | 46.86524 | 7.08822 | 6383 ft | 117 kts | 208° |
| 2026-05-05 19:38 | 46.85582 | 7.08144 | 6376 ft | 115 kts | 209° |
| 2026-05-05 19:39 | 46.84876 | 7.07645 | 6387 ft | 112 kts | 208° |
| 2026-05-05 19:39 | 46.84172 | 7.07140 | 6389 ft | 114 kts | 208° |
| 2026-05-05 19:39 | 46.83463 | 7.06636 | 6389 ft | 113 kts | 208° |
| 2026-05-05 19:39 | 46.82760 | 7.06124 | 6386 ft | 113 kts | 208° |
| 2026-05-05 19:40 | 46.82058 | 7.05601 | 6387 ft | 114 kts | 209° |
| 2026-05-05 19:40 | 46.81340 | 7.05072 | 6385 ft | 116 kts | 209° |
| 2026-05-05 19:40 | 46.80613 | 7.04558 | 6387 ft | 117 kts | 208° |
| 2026-05-05 19:40 | 46.79879 | 7.04035 | 6390 ft | 118 kts | 208° |
| 2026-05-05 19:41 | 46.79144 | 7.03496 | 6388 ft | 118 kts | 209° |
| 2026-05-05 19:41 | 46.78430 | 7.02976 | 6380 ft | 114 kts | 209° |
| 2026-05-05 19:41 | 46.77718 | 7.02468 | 6382 ft | 111 kts | 209° |
| 2026-05-05 19:41 | 46.77028 | 7.01977 | 6388 ft | 111 kts | 208° |
| 2026-05-05 19:42 | 46.76327 | 7.01469 | 6388 ft | 114 kts | 209° |
| 2026-05-05 19:42 | 46.75617 | 7.00956 | 6388 ft | 117 kts | 208° |
| 2026-05-05 19:42 | 46.75123 | 7.00583 | 6383 ft | 120 kts | 208° |
| 2026-05-05 19:42 | 46.74158 | 6.99817 | 6387 ft | 123 kts | 209° |
| 2026-05-05 19:43 | 46.73429 | 6.99240 | 6383 ft | 125 kts | 208° |
| 2026-05-05 19:43 | 46.72665 | 6.98635 | 6382 ft | 125 kts | 209° |
| 2026-05-05 19:43 | 46.71894 | 6.98031 | 6379 ft | 125 kts | 208° |
| 2026-05-05 19:43 | 46.71131 | 6.97427 | 6379 ft | 125 kts | 209° |
| 2026-05-05 19:44 | 46.70616 | 6.97021 | 6380 ft | 124 kts | 209° |
| 2026-05-05 19:44 | 46.69855 | 6.96420 | 6380 ft | 125 kts | 208° |
| 2026-05-05 19:44 | 46.69088 | 6.95807 | 6381 ft | 126 kts | 209° |
| 2026-05-05 19:44 | 46.68320 | 6.95191 | 6384 ft | 127 kts | 209° |
| 2026-05-05 19:45 | 46.67544 | 6.94571 | 6385 ft | 127 kts | 208° |
| 2026-05-05 19:45 | 46.66783 | 6.93963 | 6383 ft | 126 kts | 209° |
| 2026-05-05 19:45 | 46.66067 | 6.93389 | 6388 ft | 124 kts | 208° |
| 2026-05-05 19:45 | 46.65316 | 6.92777 | 6392 ft | 124 kts | 209° |
| 2026-05-05 19:46 | 46.64557 | 6.92173 | 6390 ft | 126 kts | 208° |
| 2026-05-05 19:46 | 46.63797 | 6.91548 | 6386 ft | 124 kts | 210° |
| 2026-05-05 19:46 | 46.63044 | 6.90943 | 6397 ft | 124 kts | 208° |
| 2026-05-05 19:46 | 46.62332 | 6.90372 | 6391 ft | 128 kts | 209° |
| 2026-05-05 19:47 | 46.61493 | 6.89981 | 6393 ft | 129 kts | 187° |
| 2026-05-05 19:47 | 46.60591 | 6.89909 | 6391 ft | 130 kts | 184° |
| 2026-05-05 19:47 | 46.59687 | 6.89853 | 6391 ft | 130 kts | 184° |
| 2026-05-05 19:47 | 46.58781 | 6.89795 | 6393 ft | 131 kts | 184° |
| 2026-05-05 19:48 | 46.57869 | 6.89744 | 6394 ft | 132 kts | 184° |
| 2026-05-05 19:48 | 46.56955 | 6.89694 | 6393 ft | 131 kts | 184° |
| 2026-05-05 19:48 | 46.56045 | 6.89641 | 6398 ft | 131 kts | 184° |
| 2026-05-05 19:48 | 46.55144 | 6.89589 | 6395 ft | 132 kts | 184° |
| 2026-05-05 19:49 | 46.54230 | 6.89533 | 6394 ft | 131 kts | 184° |
| 2026-05-05 19:49 | 46.53313 | 6.89481 | 6390 ft | 131 kts | 184° |
| 2026-05-05 19:49 | 46.52401 | 6.89423 | 6397 ft | 132 kts | 183° |
| 2026-05-05 19:49 | 46.51481 | 6.89590 | 6399 ft | 134 kts | 172° |
| 2026-05-05 19:50 | 46.50561 | 6.89820 | 6398 ft | 133 kts | 172° |
| 2026-05-05 19:50 | 46.49655 | 6.90052 | 6400 ft | 132 kts | 172° |
| 2026-05-05 19:50 | 46.48984 | 6.90224 | 6401 ft | 132 kts | 172° |
| 2026-05-05 19:50 | 46.48100 | 6.90449 | 6401 ft | 133 kts | 172° |
| 2026-05-05 19:51 | 46.47189 | 6.90680 | 6399 ft | 132 kts | 172° |
| 2026-05-05 19:51 | 46.46288 | 6.90907 | 6403 ft | 130 kts | 172° |
| 2026-05-05 19:51 | 46.45404 | 6.91147 | 6397 ft | 130 kts | 172° |
| 2026-05-05 19:51 | 46.44476 | 6.91383 | 6275 ft | 139 kts | 173° |
| 2026-05-05 19:52 | 46.43508 | 6.91615 | 6144 ft | 142 kts | 173° |
| 2026-05-05 19:52 | 46.42528 | 6.91848 | 6013 ft | 143 kts | 173° |
| 2026-05-05 19:52 | 46.41543 | 6.92066 | 5891 ft | 143 kts | 173° |
| 2026-05-05 19:52 | 46.40574 | 6.92283 | 5759 ft | 142 kts | 173° |
| 2026-05-05 19:53 | 46.39595 | 6.92498 | 5624 ft | 142 kts | 173° |
| 2026-05-05 19:53 | 46.38607 | 6.92714 | 5479 ft | 141 kts | 173° |
| 2026-05-05 19:53 | 46.37672 | 6.93080 | 5346 ft | 141 kts | 162° |
| 2026-05-05 19:53 | 46.36768 | 6.93571 | 5221 ft | 142 kts | 161° |
| 2026-05-05 19:54 | 46.36148 | 6.93910 | 5128 ft | 143 kts | 161° |
| 2026-05-05 19:54 | 46.35208 | 6.94417 | 4987 ft | 145 kts | 161° |
| 2026-05-05 19:54 | 46.34274 | 6.94909 | 4874 ft | 145 kts | 161° |
| 2026-05-05 19:55 | 46.33322 | 6.95407 | 4756 ft | 146 kts | 161° |
| 2026-05-05 19:55 | 46.32433 | 6.95866 | 4647 ft | 144 kts | 161° |
| 2026-05-05 19:55 | 46.31486 | 6.96356 | 4529 ft | 143 kts | 161° |
| 2026-05-05 19:55 | 46.30629 | 6.96800 | 4427 ft | 142 kts | 161° |
| 2026-05-05 19:56 | 46.29721 | 6.97268 | 4430 ft | 136 kts | 161° |
| 2026-05-05 19:56 | 46.28840 | 6.97720 | 4434 ft | 133 kts | 161° |
| 2026-05-05 19:56 | 46.27972 | 6.98166 | 4428 ft | 132 kts | 161° |
| 2026-05-05 19:56 | 46.27108 | 6.98610 | 4435 ft | 132 kts | 161° |
| 2026-05-05 19:57 | 46.26245 | 6.99052 | 4429 ft | 131 kts | 161° |
| 2026-05-05 19:57 | 46.25385 | 6.99494 | 4425 ft | 131 kts | 161° |
| 2026-05-05 19:57 | 46.24523 | 6.99933 | 4433 ft | 131 kts | 161° |
| 2026-05-05 19:57 | 46.23660 | 7.00370 | 4430 ft | 132 kts | 161° |
| 2026-05-05 19:58 | 46.22793 | 7.00810 | 4428 ft | 132 kts | 161° |
| 2026-05-05 19:58 | 46.21926 | 7.01250 | 4437 ft | 132 kts | 161° |
| 2026-05-05 19:58 | 46.21064 | 7.01688 | 4427 ft | 131 kts | 161° |
| 2026-05-05 19:58 | 46.20204 | 7.02126 | 4436 ft | 131 kts | 161° |
| 2026-05-05 19:59 | 46.19402 | 7.02531 | 4435 ft | 131 kts | 161° |
| 2026-05-05 19:59 | 46.18600 | 7.02939 | 4432 ft | 131 kts | 161° |
| 2026-05-05 19:59 | 46.17760 | 7.03371 | 4434 ft | 131 kts | 161° |
| 2026-05-05 19:59 | 46.16899 | 7.03809 | 4438 ft | 132 kts | 161° |
| 2026-05-05 20:00 | 46.16033 | 7.04250 | 4433 ft | 132 kts | 161° |
| 2026-05-05 20:00 | 46.15169 | 7.04689 | 4444 ft | 132 kts | 161° |
| 2026-05-05 20:00 | 46.14300 | 7.05132 | 4445 ft | 133 kts | 159° |
| 2026-05-05 20:00 | 46.13496 | 7.05764 | 4446 ft | 134 kts | 145° |
| 2026-05-05 20:01 | 46.12825 | 7.06691 | 4434 ft | 135 kts | 123° |
| 2026-05-05 20:01 | 46.12651 | 7.07991 | 4433 ft | 135 kts | 79° |
| 2026-05-05 20:01 | 46.12930 | 7.09277 | 4437 ft | 134 kts | 70° |
| 2026-05-05 20:01 | 46.13250 | 7.10540 | 4426 ft | 134 kts | 70° |
| 2026-05-05 20:02 | 46.13573 | 7.11803 | 4433 ft | 134 kts | 70° |
| 2026-05-05 20:02 | 46.13894 | 7.13060 | 4438 ft | 134 kts | 70° |
| 2026-05-05 20:02 | 46.14215 | 7.14317 | 4430 ft | 134 kts | 70° |
| 2026-05-05 20:02 | 46.14534 | 7.15554 | 4417 ft | 134 kts | 68° |
| 2026-05-05 20:03 | 46.14976 | 7.16748 | 4437 ft | 133 kts | 57° |
| 2026-05-05 20:03 | 46.15498 | 7.17828 | 4458 ft | 133 kts | 54° |
| 2026-05-05 20:03 | 46.16033 | 7.18927 | 4448 ft | 133 kts | 55° |
| 2026-05-05 20:03 | 46.16561 | 7.20020 | 4448 ft | 132 kts | 55° |
| 2026-05-05 20:04 | 46.17088 | 7.21109 | 4449 ft | 132 kts | 55° |
| 2026-05-05 20:04 | 46.17613 | 7.22196 | 4438 ft | 133 kts | 55° |
| 2026-05-05 20:04 | 46.18158 | 7.23323 | 4305 ft | 140 kts | 55° |
| 2026-05-05 20:04 | 46.18718 | 7.24481 | 4176 ft | 142 kts | 55° |
| 2026-05-05 20:05 | 46.19279 | 7.25661 | 4047 ft | 143 kts | 57° |
| 2026-05-05 20:05 | 46.19736 | 7.26927 | 3945 ft | 141 kts | 69° |
| 2026-05-05 20:05 | 46.20056 | 7.28233 | 3947 ft | 135 kts | 71° |
| 2026-05-05 20:05 | 46.20362 | 7.29505 | 3947 ft | 133 kts | 69° |
| 2026-05-05 20:06 | 46.20681 | 7.30757 | 3919 ft | 134 kts | 70° |
| 2026-05-05 20:06 | 46.20998 | 7.32040 | 3849 ft | 137 kts | 71° |
| 2026-05-05 20:06 | 46.21335 | 7.33327 | 3763 ft | 138 kts | 59° |
| 2026-05-05 20:06 | 46.22079 | 7.34152 | 3678 ft | 136 kts | 18° |
| 2026-05-05 20:07 | 46.22952 | 7.34054 | 3637 ft | 121 kts | 334° |
| 2026-05-05 20:07 | 46.23468 | 7.33208 | 3633 ft | 113 kts | 290° |
| 2026-05-05 20:07 | 46.23429 | 7.32133 | 3633 ft | 107 kts | 244° |
| 2026-05-05 20:07 | 46.22895 | 7.31445 | 3632 ft | 104 kts | 198° |
| 2026-05-05 20:08 | 46.22200 | 7.31512 | 3632 ft | 102 kts | 152° |
| 2026-05-05 20:08 | 46.21761 | 7.32272 | 3633 ft | 101 kts | 105° |
| 2026-05-05 20:08 | 46.21840 | 7.33242 | 3634 ft | 100 kts | 59° |
| 2026-05-05 20:08 | 46.22382 | 7.33816 | 3636 ft | 99 kts | 12° |
| 2026-05-05 20:09 | 46.23043 | 7.33634 | 3637 ft | 100 kts | 326° |
| 2026-05-05 20:09 | 46.23409 | 7.32803 | 3640 ft | 101 kts | 279° |
| 2026-05-05 20:09 | 46.23245 | 7.31838 | 3641 ft | 101 kts | 233° |
| 2026-05-05 20:09 | 46.22652 | 7.31341 | 3643 ft | 101 kts | 186° |
| 2026-05-05 20:10 | 46.21995 | 7.31611 | 3640 ft | 101 kts | 140° |
| 2026-05-05 20:10 | 46.21679 | 7.32478 | 3646 ft | 100 kts | 93° |
| 2026-05-05 20:10 | 46.21899 | 7.33397 | 3649 ft | 99 kts | 47° |
| 2026-05-05 20:10 | 46.22513 | 7.33791 | 3650 ft | 99 kts | 0° |
| 2026-05-05 20:11 | 46.23129 | 7.33419 | 3650 ft | 100 kts | 314° |
| 2026-05-05 20:11 | 46.23377 | 7.32494 | 3647 ft | 102 kts | 269° |
| 2026-05-05 20:11 | 46.23083 | 7.31576 | 3649 ft | 102 kts | 221° |
| 2026-05-05 20:11 | 46.22440 | 7.31250 | 3650 ft | 101 kts | 176° |
| 2026-05-05 20:12 | 46.21826 | 7.31687 | 3649 ft | 101 kts | 129° |
| 2026-05-05 20:12 | 46.21621 | 7.32624 | 3649 ft | 100 kts | 83° |
| 2026-05-05 20:12 | 46.21950 | 7.33473 | 3644 ft | 99 kts | 37° |
| 2026-05-05 20:12 | 46.22602 | 7.33711 | 3647 ft | 100 kts | 354° |
| 2026-05-05 20:13 | 46.23267 | 7.33934 | 3647 ft | 100 kts | 34° |
| 2026-05-05 20:13 | 46.23698 | 7.34708 | 3649 ft | 100 kts | 58° |
| 2026-05-05 20:13 | 46.24056 | 7.35568 | 3646 ft | 100 kts | 58° |
| 2026-05-05 20:13 | 46.24394 | 7.36426 | 3642 ft | 100 kts | 62° |
| 2026-05-05 20:14 | 46.24712 | 7.37332 | 3557 ft | 107 kts | 63° |
| 2026-05-05 20:14 | 46.25000 | 7.38387 | 3396 ft | 114 kts | 88° |
| 2026-05-05 20:14 | 46.24689 | 7.39424 | 3286 ft | 116 kts | 135° |
| 2026-05-05 20:14 | 46.23995 | 7.39881 | 3216 ft | 105 kts | 181° |
| 2026-05-05 20:15 | 46.23394 | 7.39388 | 2886 ft | 101 kts | 229° |
| 2026-05-05 20:15 | 46.23120 | 7.38543 | 2695 ft | 82 kts | 257° |
| 2026-05-05 20:15 | 46.22988 | 7.37811 | 2453 ft | 72 kts | 257° |
| 2026-05-05 20:15 | 46.22851 | 7.37097 | 2297 ft | 75 kts | 252° |
| 2026-05-05 20:16 | 46.22709 | 7.36381 | 2160 ft | 72 kts | 256° |
| 2026-05-05 20:16 | 46.22568 | 7.35685 | 1981 ft | 71 kts | 253° |
| 2026-05-05 20:16 | 46.22413 | 7.35010 | 1836 ft | 71 kts | 256° |
| 2026-05-05 20:16 | 46.22276 | 7.34324 | 1693 ft | 71 kts | 252° |
| 2026-05-05 20:17 | 46.22137 | 7.33657 | 1582 ft | 62 kts | 252° |
| 2026-05-05 20:17 | 46.22042 | 7.33185 | 1581 ft | 39 kts | 256° |
| 2026-05-05 20:17 | 46.21981 | 7.32870 | 1581 ft | 28 kts | 252° |
| 2026-05-05 20:17 | 46.21928 | 7.32645 | 1581 ft | 20 kts | 249° |
| 2026-05-05 20:18 | 46.21871 | 7.32538 | 1581 ft | 7 kts | 180° |
| 2026-05-05 20:18 | 46.21816 | 7.32560 | 1581 ft | 10 kts | 164° |
| 2026-05-05 20:18 | 46.21791 | 7.32614 | 1581 ft | 7 kts | 78° |
| 2026-05-05 20:18 | 46.21789 | 7.32679 | 1581 ft | 7 kts | 117° |
| 2026-05-05 20:19 | 46.21761 | 7.32709 | 1581 ft | 3 kts | 164° |
| 2026-05-05 20:19 | 46.21758 | 7.32710 | 1581 ft | 0 kts | 169° |